createdAt,value
2018-11-22T00:00:08.685Z,0.00
2018-11-22T00:01:08.653Z,0.00
2018-11-22T00:02:08.619Z,0.00
2018-11-22T00:03:08.585Z,0.00
2018-11-22T00:04:08.561Z,0.00
2018-11-22T00:05:08.518Z,0.00
2018-11-22T00:06:08.484Z,0.00
2018-11-22T00:07:08.457Z,0.00
2018-11-22T00:08:08.417Z,0.00
2018-11-22T00:09:08.383Z,0.00
2018-11-22T00:10:08.364Z,0.00
2018-11-22T00:11:08.317Z,0.00
2018-11-22T00:12:08.283Z,0.00
2018-11-22T00:13:08.253Z,0.00
2018-11-22T00:14:08.216Z,0.00
2018-11-22T00:15:08.183Z,0.00
2018-11-22T00:16:08.148Z,0.00
2018-11-22T00:17:08.115Z,0.00
2018-11-22T00:18:08.081Z,0.00
2018-11-22T00:19:08.047Z,0.00
2018-11-22T00:20:08.015Z,0.00
2018-11-22T00:21:07.980Z,0.00
2018-11-22T00:22:07.951Z,0.00
2018-11-22T00:23:07.923Z,0.00
2018-11-22T00:24:07.880Z,0.00
2018-11-22T00:25:07.846Z,0.00
2018-11-22T00:26:07.822Z,0.00
2018-11-22T00:27:07.781Z,0.00
2018-11-22T00:28:07.760Z,0.00
2018-11-22T00:29:07.714Z,0.00
2018-11-22T00:30:07.686Z,0.00
2018-11-22T00:31:07.649Z,0.00
2018-11-22T00:32:07.611Z,0.00
2018-11-22T00:33:07.576Z,0.00
2018-11-22T00:34:07.544Z,0.00
2018-11-22T00:35:07.510Z,0.00
2018-11-22T00:36:07.476Z,0.00
2018-11-22T00:37:07.448Z,0.00
2018-11-22T00:38:07.412Z,0.00
2018-11-22T00:39:07.377Z,0.00
2018-11-22T00:40:07.351Z,0.00
2018-11-22T00:41:07.310Z,0.00
2018-11-22T00:42:07.276Z,0.00
2018-11-22T00:43:07.243Z,0.00
2018-11-22T00:44:07.208Z,0.00
2018-11-22T00:45:07.175Z,0.00
2018-11-22T00:46:07.141Z,0.00
2018-11-22T00:47:07.112Z,0.00
2018-11-22T00:48:07.075Z,0.00
2018-11-22T00:49:07.043Z,0.00
2018-11-22T00:50:07.007Z,0.00
2018-11-22T00:51:06.979Z,0.00
2018-11-22T00:52:06.938Z,0.00
2018-11-22T00:53:06.906Z,0.00
2018-11-22T00:54:06.872Z,0.00
2018-11-22T00:55:06.848Z,0.00
2018-11-22T00:56:06.810Z,0.00
2018-11-22T00:57:06.771Z,0.00
2018-11-22T00:58:06.737Z,0.00
2018-11-22T00:59:06.704Z,0.00
2018-11-22T01:00:06.670Z,0.00
2018-11-22T01:01:06.637Z,0.00
2018-11-22T01:02:06.603Z,0.00
2018-11-22T01:03:06.570Z,0.00
2018-11-22T01:04:06.535Z,0.00
2018-11-22T01:05:06.509Z,0.00
2018-11-22T01:06:06.468Z,0.00
2018-11-22T01:07:06.437Z,0.00
2018-11-22T01:08:06.400Z,0.00
2018-11-22T01:09:06.370Z,0.00
2018-11-22T01:10:06.336Z,0.00
2018-11-22T01:11:06.310Z,0.00
2018-11-22T01:12:06.266Z,0.00
2018-11-22T01:13:06.231Z,0.00
2018-11-22T01:14:06.202Z,0.00
2018-11-22T01:15:06.167Z,0.00
2018-11-22T01:16:06.133Z,0.00
2018-11-22T01:17:06.097Z,0.00
2018-11-22T01:18:06.064Z,0.00
2018-11-22T01:19:06.038Z,0.00
2018-11-22T01:20:05.996Z,0.00
2018-11-22T01:21:05.963Z,0.00
2018-11-22T01:22:05.929Z,0.00
2018-11-22T01:23:05.901Z,0.00
2018-11-22T01:24:05.861Z,0.00
2018-11-22T01:25:05.831Z,0.00
2018-11-22T01:26:05.794Z,0.00
2018-11-22T01:27:05.765Z,0.00
2018-11-22T01:28:05.731Z,0.00
2018-11-22T01:29:05.693Z,0.00
2018-11-22T01:30:05.662Z,0.00
2018-11-22T01:31:05.628Z,0.00
2018-11-22T01:32:05.597Z,0.00
2018-11-22T01:33:05.558Z,0.00
2018-11-22T01:34:05.526Z,0.00
2018-11-22T01:35:05.508Z,0.00
2018-11-22T01:36:05.456Z,0.00
2018-11-22T01:37:05.423Z,0.00
2018-11-22T01:38:05.397Z,0.00
2018-11-22T01:39:05.356Z,0.00
2018-11-22T01:40:05.328Z,0.00
2018-11-22T01:41:05.291Z,0.00
2018-11-22T01:42:05.259Z,0.00
2018-11-22T01:43:05.227Z,0.00
2018-11-22T01:44:05.186Z,0.00
2018-11-22T01:45:05.153Z,0.00
2018-11-22T01:46:05.119Z,0.00
2018-11-22T01:47:05.086Z,0.00
2018-11-22T01:48:05.052Z,0.00
2018-11-22T01:49:05.018Z,0.00
2018-11-22T01:50:04.983Z,0.00
2018-11-22T01:51:04.951Z,0.00
2018-11-22T01:52:04.917Z,0.00
2018-11-22T01:53:04.883Z,0.00
2018-11-22T01:54:04.850Z,0.00
2018-11-22T01:55:04.815Z,0.00
2018-11-22T01:56:04.781Z,0.00
2018-11-22T01:57:04.749Z,0.00
2018-11-22T01:58:04.715Z,0.00
2018-11-22T01:59:04.683Z,0.00
2018-11-22T02:00:04.648Z,0.00
2018-11-22T02:01:04.614Z,0.00
2018-11-22T02:02:04.581Z,0.00
2018-11-22T02:03:04.547Z,0.00
2018-11-22T02:04:04.512Z,0.00
2018-11-22T02:05:04.482Z,0.00
2018-11-22T02:06:04.446Z,0.00
2018-11-22T02:07:04.417Z,0.00
2018-11-22T02:08:04.381Z,0.00
2018-11-22T02:09:04.348Z,0.00
2018-11-22T02:10:04.312Z,0.00
2018-11-22T02:11:04.279Z,0.00
2018-11-22T02:12:04.243Z,0.00
2018-11-22T02:13:04.218Z,0.00
2018-11-22T02:14:04.178Z,0.00
2018-11-22T02:15:04.145Z,0.00
2018-11-22T02:16:04.110Z,0.00
2018-11-22T02:17:04.076Z,0.00
2018-11-22T02:18:04.045Z,0.00
2018-11-22T02:19:04.010Z,0.00
2018-11-22T02:20:03.979Z,0.00
2018-11-22T02:21:03.945Z,0.00
2018-11-22T02:22:03.909Z,0.00
2018-11-22T02:23:03.876Z,0.00
2018-11-22T02:24:03.841Z,0.00
2018-11-22T02:25:03.809Z,0.00
2018-11-22T02:26:03.777Z,0.00
2018-11-22T02:27:03.742Z,0.00
2018-11-22T02:28:03.707Z,0.00
2018-11-22T02:29:03.675Z,0.00
2018-11-22T02:30:03.647Z,0.00
2018-11-22T02:31:03.608Z,0.00
2018-11-22T02:32:03.573Z,0.00
2018-11-22T02:33:03.540Z,0.00
2018-11-22T02:34:03.518Z,0.00
2018-11-22T02:35:03.474Z,0.00
2018-11-22T02:36:03.439Z,0.00
2018-11-22T02:37:03.407Z,0.00
2018-11-22T02:38:03.373Z,0.00
2018-11-22T02:39:03.345Z,0.00
2018-11-22T02:40:03.305Z,0.00
2018-11-22T02:41:03.286Z,0.00
2018-11-22T02:42:03.242Z,0.00
2018-11-22T02:43:03.212Z,0.00
2018-11-22T02:44:03.176Z,0.00
2018-11-22T02:45:03.137Z,0.00
2018-11-22T02:46:03.105Z,0.00
2018-11-22T02:47:03.078Z,0.00
2018-11-22T02:48:03.036Z,0.00
2018-11-22T02:49:03.008Z,0.00
2018-11-22T02:50:02.970Z,0.00
2018-11-22T02:51:02.938Z,0.00
2018-11-22T02:52:02.902Z,0.00
2018-11-22T02:53:02.869Z,0.00
2018-11-22T02:54:02.835Z,0.00
2018-11-22T02:55:02.802Z,0.00
2018-11-22T02:56:02.774Z,0.00
2018-11-22T02:57:02.735Z,0.00
2018-11-22T02:58:02.741Z,0.00
2018-11-22T02:59:02.668Z,0.00
2018-11-22T03:00:02.634Z,0.00
2018-11-22T03:01:02.606Z,0.00
2018-11-22T03:02:02.572Z,0.00
2018-11-22T03:03:02.534Z,0.00
2018-11-22T03:04:02.501Z,0.00
2018-11-22T03:05:02.466Z,0.00
2018-11-22T03:06:02.445Z,0.00
2018-11-22T03:07:02.399Z,0.00
2018-11-22T03:08:02.375Z,0.00
2018-11-22T03:09:02.332Z,0.00
2018-11-22T03:10:02.299Z,0.00
2018-11-22T03:11:02.267Z,0.00
2018-11-22T03:12:02.230Z,0.00
2018-11-22T03:13:02.203Z,0.00
2018-11-22T03:14:02.163Z,0.00
2018-11-22T03:15:02.136Z,0.00
2018-11-22T03:16:02.097Z,0.00
2018-11-22T03:17:02.067Z,0.00
2018-11-22T03:18:02.031Z,0.00
2018-11-22T03:19:02.013Z,0.00
2018-11-22T03:20:01.969Z,0.00
2018-11-22T03:21:01.940Z,0.00
2018-11-22T03:22:01.912Z,0.00
2018-11-22T03:23:01.872Z,0.00
2018-11-22T03:24:01.828Z,0.00
2018-11-22T03:25:01.795Z,0.00
2018-11-22T03:26:01.761Z,0.00
2018-11-22T03:27:01.728Z,0.00
2018-11-22T03:28:01.695Z,0.00
2018-11-22T03:29:01.660Z,0.00
2018-11-22T03:30:01.630Z,0.00
2018-11-22T03:31:01.599Z,0.00
2018-11-22T03:32:01.560Z,0.00
2018-11-22T03:33:01.528Z,0.00
2018-11-22T03:34:01.492Z,0.00
2018-11-22T03:35:01.459Z,0.00
2018-11-22T03:36:01.428Z,0.00
2018-11-22T03:37:02.492Z,0.00
2018-11-22T03:38:01.360Z,0.00
2018-11-22T03:39:01.325Z,0.00
2018-11-22T03:40:01.288Z,0.00
2018-11-22T03:41:01.256Z,0.00
2018-11-22T03:42:01.223Z,0.00
2018-11-22T03:43:01.191Z,0.00
2018-11-22T03:44:01.159Z,0.00
2018-11-22T03:45:01.122Z,0.00
2018-11-22T03:46:01.089Z,0.00
2018-11-22T03:47:01.054Z,0.00
2018-11-22T03:48:01.020Z,0.00
2018-11-22T03:49:00.987Z,0.00
2018-11-22T03:50:00.954Z,0.00
2018-11-22T03:51:00.921Z,0.00
2018-11-22T03:52:00.888Z,0.00
2018-11-22T03:53:00.852Z,0.00
2018-11-22T03:54:00.820Z,0.00
2018-11-22T03:55:00.788Z,0.00
2018-11-22T03:56:00.754Z,0.00
2018-11-22T03:57:00.718Z,0.00
2018-11-22T03:58:00.689Z,0.00
2018-11-22T03:59:00.652Z,0.00
2018-11-22T04:00:00.618Z,0.00
2018-11-22T04:01:00.584Z,0.00
2018-11-22T04:02:00.551Z,0.00
2018-11-22T04:03:00.517Z,0.00
2018-11-22T04:04:00.486Z,0.00
2018-11-22T04:05:00.450Z,0.00
2018-11-22T04:06:00.416Z,0.00
2018-11-22T04:07:00.390Z,0.00
2018-11-22T04:08:00.351Z,0.00
2018-11-22T04:09:00.321Z,0.00
2018-11-22T04:10:00.288Z,0.00
2018-11-22T04:11:00.250Z,0.00
2018-11-22T04:12:00.215Z,0.00
2018-11-22T04:13:00.182Z,0.00
2018-11-22T04:14:00.147Z,0.00
2018-11-22T04:15:00.121Z,0.00
2018-11-22T04:16:00.085Z,0.00
2018-11-22T04:17:00.049Z,0.00
2018-11-22T04:18:00.165Z,0.00
2018-11-22T04:18:59.981Z,0.00
2018-11-22T04:19:59.947Z,0.00
2018-11-22T04:20:59.913Z,0.00
2018-11-22T04:21:59.880Z,0.00
2018-11-22T04:22:59.847Z,0.00
2018-11-22T04:23:59.962Z,0.00
2018-11-22T04:24:59.844Z,0.00
2018-11-22T04:25:59.746Z,0.00
2018-11-22T04:27:01.016Z,0.00
2018-11-22T04:27:59.678Z,0.00
2018-11-22T04:28:59.645Z,0.00
2018-11-22T04:29:59.611Z,0.00
2018-11-22T04:30:59.581Z,0.00
2018-11-22T04:31:59.553Z,0.00
2018-11-22T04:32:59.509Z,0.00
2018-11-22T04:33:59.476Z,0.00
2018-11-22T04:34:59.443Z,0.00
2018-11-22T04:35:59.408Z,0.00
2018-11-22T04:36:59.375Z,0.00
2018-11-22T04:37:59.342Z,0.00
2018-11-22T04:38:59.308Z,0.00
2018-11-22T04:39:59.273Z,0.00
2018-11-22T04:40:59.240Z,0.00
2018-11-22T04:41:59.207Z,0.00
2018-11-22T04:42:59.172Z,0.00
2018-11-22T04:43:59.139Z,0.00
2018-11-22T04:44:59.106Z,0.00
2018-11-22T04:45:59.080Z,0.00
2018-11-22T04:46:59.037Z,0.00
2018-11-22T04:47:59.004Z,0.00
2018-11-22T04:48:58.970Z,0.00
2018-11-22T04:49:58.938Z,0.00
2018-11-22T04:50:58.903Z,0.00
2018-11-22T04:51:58.873Z,0.00
2018-11-22T04:52:58.835Z,0.00
2018-11-22T04:53:58.802Z,0.00
2018-11-22T04:54:58.767Z,0.00
2018-11-22T04:55:58.734Z,0.00
2018-11-22T04:56:58.704Z,0.00
2018-11-22T04:57:58.687Z,0.00
2018-11-22T04:58:58.634Z,0.00
2018-11-22T04:59:58.599Z,0.00
2018-11-22T05:00:58.565Z,0.00
2018-11-22T05:01:58.531Z,0.00
2018-11-22T05:02:58.498Z,0.00
2018-11-22T05:03:58.465Z,0.00
2018-11-22T05:04:58.430Z,0.00
2018-11-22T05:05:58.397Z,0.00
2018-11-22T05:06:58.363Z,0.00
2018-11-22T05:07:58.328Z,0.00
2018-11-22T05:08:58.295Z,0.00
2018-11-22T05:09:58.260Z,0.00
2018-11-22T05:10:58.234Z,0.00
2018-11-22T05:11:58.192Z,0.00
2018-11-22T05:12:58.158Z,0.00
2018-11-22T05:13:58.124Z,0.00
2018-11-22T05:14:58.095Z,0.00
2018-11-22T05:15:58.057Z,0.00
2018-11-22T05:16:58.023Z,0.00
2018-11-22T05:17:57.994Z,0.00
2018-11-22T05:18:57.954Z,0.00
2018-11-22T05:19:57.920Z,0.00
2018-11-22T05:20:57.893Z,0.00
2018-11-22T05:21:57.854Z,0.00
2018-11-22T05:22:57.820Z,0.00
2018-11-22T05:23:57.786Z,0.00
2018-11-22T05:24:57.752Z,0.00
2018-11-22T05:25:57.718Z,0.00
2018-11-22T05:26:57.685Z,0.00
2018-11-22T05:27:57.650Z,0.00
2018-11-22T05:28:57.617Z,0.00
2018-11-22T05:29:57.583Z,0.00
2018-11-22T05:30:57.551Z,0.00
2018-11-22T05:31:57.517Z,0.00
2018-11-22T05:32:57.480Z,0.00
2018-11-22T05:33:57.599Z,0.00
2018-11-22T05:34:57.422Z,0.00
2018-11-22T05:35:57.380Z,0.00
2018-11-22T05:36:57.346Z,0.00
2018-11-22T05:37:57.313Z,0.00
2018-11-22T05:38:57.279Z,0.00
2018-11-22T05:39:57.244Z,0.00
2018-11-22T05:40:57.211Z,0.00
2018-11-22T05:41:57.177Z,0.00
2018-11-22T05:42:57.144Z,0.00
2018-11-22T05:43:57.109Z,0.00
2018-11-22T05:44:57.082Z,0.00
2018-11-22T05:45:57.042Z,0.00
2018-11-22T05:46:57.008Z,0.00
2018-11-22T05:47:56.974Z,0.00
2018-11-22T05:48:56.940Z,0.00
2018-11-22T05:49:56.914Z,0.00
2018-11-22T05:50:56.873Z,0.00
2018-11-22T05:51:56.842Z,0.00
2018-11-22T05:52:56.803Z,0.00
2018-11-22T05:53:56.773Z,0.00
2018-11-22T05:54:56.740Z,0.00
2018-11-22T05:55:56.706Z,0.00
2018-11-22T05:56:56.670Z,0.00
2018-11-22T05:57:56.645Z,0.00
2018-11-22T05:58:56.611Z,0.00
2018-11-22T05:59:56.572Z,0.00
2018-11-22T06:00:56.536Z,0.00
2018-11-22T06:01:56.503Z,0.00
2018-11-22T06:02:56.479Z,0.00
2018-11-22T06:03:56.438Z,0.00
2018-11-22T06:04:56.401Z,0.00
2018-11-22T06:05:56.366Z,0.00
2018-11-22T06:06:56.535Z,0.00
2018-11-22T06:07:57.714Z,0.00
2018-11-22T06:08:56.265Z,0.00
2018-11-22T06:09:56.234Z,0.00
2018-11-22T06:10:56.198Z,0.00
2018-11-22T06:11:56.169Z,0.00
2018-11-22T06:12:56.130Z,0.00
2018-11-22T06:13:56.096Z,0.00
2018-11-22T06:14:56.063Z,0.00
2018-11-22T06:15:56.028Z,0.00
2018-11-22T06:16:55.995Z,0.00
2018-11-22T06:17:55.961Z,0.00
2018-11-22T06:18:55.929Z,0.00
2018-11-22T06:19:55.899Z,0.00
2018-11-22T06:20:55.869Z,0.00
2018-11-22T06:21:55.826Z,0.00
2018-11-22T06:22:55.798Z,0.00
2018-11-22T06:23:55.758Z,0.00
2018-11-22T06:24:55.726Z,0.00
2018-11-22T06:25:55.692Z,0.00
2018-11-22T06:26:55.663Z,0.00
2018-11-22T06:27:55.624Z,0.00
2018-11-22T06:28:55.591Z,0.00
2018-11-22T06:29:55.556Z,0.00
2018-11-22T06:30:55.527Z,0.00
2018-11-22T06:31:55.492Z,0.00
2018-11-22T06:32:55.456Z,0.00
2018-11-22T06:33:55.424Z,0.00
2018-11-22T06:34:55.390Z,0.00
2018-11-22T06:35:55.356Z,0.00
2018-11-22T06:36:55.322Z,0.00
2018-11-22T06:37:55.293Z,0.00
2018-11-22T06:38:55.255Z,0.00
2018-11-22T06:39:55.225Z,0.00
2018-11-22T06:40:55.187Z,0.00
2018-11-22T06:41:55.155Z,0.00
2018-11-22T06:42:55.124Z,0.00
2018-11-22T06:43:55.092Z,0.00
2018-11-22T06:44:55.052Z,0.00
2018-11-22T06:45:55.020Z,0.00
2018-11-22T06:46:54.986Z,0.00
2018-11-22T06:47:54.954Z,0.00
2018-11-22T06:48:54.919Z,0.00
2018-11-22T06:49:54.887Z,0.00
2018-11-22T06:50:58.213Z,0.00
2018-11-22T06:51:54.828Z,0.00
2018-11-22T06:52:54.784Z,5.63
2018-11-22T06:53:54.751Z,5.63
2018-11-22T06:54:54.719Z,5.63
2018-11-22T06:55:54.685Z,5.63
2018-11-22T06:56:54.650Z,5.63
2018-11-22T06:57:54.624Z,5.63
2018-11-22T06:58:54.589Z,5.63
2018-11-22T06:59:54.551Z,5.63
2018-11-22T07:00:54.516Z,5.63
2018-11-22T07:01:54.483Z,5.63
2018-11-22T07:02:54.448Z,11.25
2018-11-22T07:03:54.422Z,5.63
2018-11-22T07:04:54.383Z,11.25
2018-11-22T07:05:54.349Z,11.25
2018-11-22T07:06:54.316Z,11.25
2018-11-22T07:07:54.282Z,11.25
2018-11-22T07:08:54.252Z,11.25
2018-11-22T07:09:54.216Z,16.88
2018-11-22T07:10:54.185Z,16.88
2018-11-22T07:11:54.148Z,11.25
2018-11-22T07:12:54.115Z,16.88
2018-11-22T07:13:54.082Z,16.88
2018-11-22T07:14:54.051Z,16.88
2018-11-22T07:15:54.014Z,16.88
2018-11-22T07:16:53.981Z,16.88
2018-11-22T07:17:53.948Z,16.88
2018-11-22T07:18:53.924Z,22.50
2018-11-22T07:19:53.880Z,22.50
2018-11-22T07:20:53.856Z,28.13
2018-11-22T07:21:53.814Z,28.13
2018-11-22T07:22:53.782Z,28.13
2018-11-22T07:23:53.749Z,33.75
2018-11-22T07:24:53.714Z,28.13
2018-11-22T07:25:53.684Z,28.13
2018-11-22T07:26:53.653Z,28.13
2018-11-22T07:27:53.613Z,28.13
2018-11-22T07:28:53.580Z,33.75
2018-11-22T07:29:53.547Z,33.75
2018-11-22T07:30:53.514Z,33.75
2018-11-22T07:31:53.479Z,33.75
2018-11-22T07:32:53.449Z,39.38
2018-11-22T07:33:53.413Z,39.38
2018-11-22T07:34:53.379Z,39.38
2018-11-22T07:35:53.345Z,39.38
2018-11-22T07:36:53.312Z,45.00
2018-11-22T07:37:53.279Z,45.00
2018-11-22T07:38:53.246Z,50.63
2018-11-22T07:39:53.213Z,50.63
2018-11-22T07:40:53.179Z,56.25
2018-11-22T07:41:53.146Z,56.25
2018-11-22T07:42:53.116Z,61.88
2018-11-22T07:43:53.078Z,67.50
2018-11-22T07:44:53.048Z,67.50
2018-11-22T07:45:53.012Z,73.13
2018-11-22T07:46:52.978Z,73.13
2018-11-22T07:47:52.945Z,73.13
2018-11-22T07:48:52.912Z,67.50
2018-11-22T07:49:52.878Z,67.50
2018-11-22T07:50:52.847Z,73.13
2018-11-22T07:51:52.812Z,73.13
2018-11-22T07:52:56.033Z,73.13
2018-11-22T07:53:52.765Z,84.38
2018-11-22T07:54:52.713Z,84.38
2018-11-22T07:55:52.688Z,90.00
2018-11-22T07:56:52.646Z,106.88
2018-11-22T07:57:52.612Z,101.25
2018-11-22T07:58:52.588Z,95.63
2018-11-22T07:59:52.546Z,95.63
2018-11-22T08:00:52.513Z,95.63
2018-11-22T08:01:52.481Z,106.88
2018-11-22T08:02:52.458Z,118.13
2018-11-22T08:03:52.412Z,123.75
2018-11-22T08:04:52.383Z,118.13
2018-11-22T08:05:52.347Z,123.75
2018-11-22T08:06:52.314Z,118.13
2018-11-22T08:07:52.280Z,123.75
2018-11-22T08:08:52.247Z,129.38
2018-11-22T08:09:52.214Z,129.38
2018-11-22T08:10:52.183Z,123.75
2018-11-22T08:11:52.150Z,123.75
2018-11-22T08:12:52.165Z,118.13
2018-11-22T08:13:52.081Z,112.50
2018-11-22T08:14:52.048Z,112.50
2018-11-22T08:15:52.022Z,101.25
2018-11-22T08:16:51.982Z,84.38
2018-11-22T08:17:51.948Z,84.38
2018-11-22T08:18:51.913Z,84.38
2018-11-22T08:19:51.882Z,78.75
2018-11-22T08:20:51.848Z,78.75
2018-11-22T08:21:51.815Z,78.75
2018-11-22T08:22:51.782Z,78.75
2018-11-22T08:23:51.747Z,84.38
2018-11-22T08:24:51.716Z,90.00
2018-11-22T08:25:51.682Z,101.25
2018-11-22T08:26:51.650Z,106.88
2018-11-22T08:27:51.618Z,112.50
2018-11-22T08:28:51.582Z,123.75
2018-11-22T08:29:51.548Z,112.50
2018-11-22T08:30:51.520Z,112.50
2018-11-22T08:31:51.482Z,106.88
2018-11-22T08:32:52.727Z,106.88
2018-11-22T08:33:51.415Z,101.25
2018-11-22T08:34:51.383Z,106.88
2018-11-22T08:35:51.349Z,112.50
2018-11-22T08:36:51.316Z,112.50
2018-11-22T08:37:51.286Z,118.13
2018-11-22T08:38:51.257Z,118.13
2018-11-22T08:39:51.216Z,146.25
2018-11-22T08:40:51.183Z,163.13
2018-11-22T08:41:51.149Z,174.38
2018-11-22T08:42:55.096Z,163.13
2018-11-22T08:43:51.083Z,157.50
2018-11-22T08:44:51.050Z,146.25
2018-11-22T08:45:51.017Z,135.00
2018-11-22T08:46:50.985Z,135.00
2018-11-22T08:47:50.959Z,129.38
2018-11-22T08:48:50.918Z,106.88
2018-11-22T08:49:50.883Z,90.00
2018-11-22T08:50:50.853Z,84.38
2018-11-22T08:51:50.819Z,90.00
2018-11-22T08:52:50.787Z,101.25
2018-11-22T08:53:50.753Z,106.88
2018-11-22T08:54:50.720Z,123.75
2018-11-22T08:55:50.688Z,129.38
2018-11-22T08:56:50.655Z,135.00
2018-11-22T08:57:50.622Z,135.00
2018-11-22T08:58:50.590Z,140.63
2018-11-22T08:59:50.554Z,168.75
2018-11-22T09:00:50.524Z,185.63
2018-11-22T09:01:50.488Z,225.00
2018-11-22T09:02:50.457Z,286.88
2018-11-22T09:03:50.423Z,331.88
2018-11-22T09:04:50.389Z,320.63
2018-11-22T09:05:50.356Z,253.13
2018-11-22T09:06:50.323Z,208.13
2018-11-22T09:07:50.289Z,185.63
2018-11-22T09:08:50.261Z,168.75
2018-11-22T09:09:50.225Z,174.38
2018-11-22T09:10:50.200Z,202.50
2018-11-22T09:11:50.157Z,168.75
2018-11-22T09:12:50.125Z,129.38
2018-11-22T09:13:50.096Z,118.13
2018-11-22T09:14:50.060Z,129.38
2018-11-22T09:15:50.026Z,140.63
2018-11-22T09:16:49.993Z,151.88
2018-11-22T09:17:49.965Z,163.13
2018-11-22T09:18:49.936Z,180.00
2018-11-22T09:19:49.898Z,208.13
2018-11-22T09:20:49.863Z,213.75
2018-11-22T09:21:49.833Z,230.63
2018-11-22T09:22:49.799Z,219.38
2018-11-22T09:23:49.763Z,219.38
2018-11-22T09:24:49.731Z,225.00
2018-11-22T09:25:49.698Z,230.63
2018-11-22T09:26:49.676Z,213.75
2018-11-22T09:27:49.631Z,213.75
2018-11-22T09:28:49.599Z,225.00
2018-11-22T09:29:49.566Z,202.50
2018-11-22T09:30:49.538Z,236.25
2018-11-22T09:31:49.500Z,236.25
2018-11-22T09:32:49.468Z,281.25
2018-11-22T09:34:49.412Z,253.13
2018-11-22T09:35:49.368Z,275.63
2018-11-22T09:36:49.335Z,241.88
2018-11-22T09:37:49.303Z,230.63
2018-11-22T09:38:49.271Z,253.13
2018-11-22T09:39:49.241Z,292.50
2018-11-22T09:40:49.203Z,326.25
2018-11-22T09:41:49.183Z,309.38
2018-11-22T09:42:49.142Z,320.63
2018-11-22T09:43:49.105Z,348.75
2018-11-22T09:44:49.076Z,337.50
2018-11-22T09:45:49.042Z,309.38
2018-11-22T09:46:49.009Z,292.50
2018-11-22T09:47:48.977Z,258.75
2018-11-22T09:48:49.001Z,253.13
2018-11-22T09:49:48.914Z,253.13
2018-11-22T09:50:48.885Z,264.38
2018-11-22T09:51:48.852Z,270.00
2018-11-22T09:52:48.815Z,253.13
2018-11-22T09:53:48.784Z,281.25
2018-11-22T09:54:48.753Z,286.88
2018-11-22T09:55:48.718Z,253.13
2018-11-22T09:56:48.685Z,258.75
2018-11-22T09:57:48.656Z,264.38
2018-11-22T09:58:51.658Z,236.25
2018-11-22T09:59:48.590Z,219.38
2018-11-22T10:00:48.555Z,208.13
2018-11-22T10:01:48.527Z,191.25
2018-11-22T10:02:48.505Z,196.88
2018-11-22T10:03:48.467Z,196.88
2018-11-22T10:04:48.499Z,191.25
2018-11-22T10:05:48.445Z,208.13
2018-11-22T10:06:48.360Z,225.00
2018-11-22T10:07:48.327Z,230.63
2018-11-22T10:08:48.296Z,247.50
2018-11-22T10:09:48.264Z,258.75
2018-11-22T10:10:48.231Z,315.00
2018-11-22T10:11:48.202Z,337.50
2018-11-22T10:12:48.166Z,286.88
2018-11-22T10:13:48.135Z,298.13
2018-11-22T10:14:48.101Z,270.00
2018-11-22T10:15:48.068Z,258.75
2018-11-22T10:16:48.094Z,258.75
2018-11-22T10:17:48.003Z,264.38
2018-11-22T10:18:47.971Z,253.13
2018-11-22T10:19:47.938Z,258.75
2018-11-22T10:20:47.906Z,247.50
2018-11-22T10:21:47.874Z,247.50
2018-11-22T10:22:47.858Z,275.63
2018-11-22T10:23:47.851Z,270.00
2018-11-22T10:24:47.778Z,219.38
2018-11-22T10:25:47.751Z,185.63
2018-11-22T10:26:47.712Z,185.63
2018-11-22T10:27:47.681Z,191.25
2018-11-22T10:28:47.648Z,213.75
2018-11-22T10:29:47.626Z,213.75
2018-11-22T10:30:47.583Z,225.00
2018-11-22T10:31:47.624Z,202.50
2018-11-22T10:32:47.518Z,202.50
2018-11-22T10:33:47.490Z,241.88
2018-11-22T10:34:47.460Z,241.88
2018-11-22T10:35:47.426Z,219.38
2018-11-22T10:36:47.388Z,230.63
2018-11-22T10:37:47.490Z,219.38
2018-11-22T10:38:47.322Z,208.13
2018-11-22T10:39:47.441Z,219.38
2018-11-22T10:40:47.258Z,225.00
2018-11-22T10:41:47.225Z,230.63
2018-11-22T10:42:47.194Z,230.63
2018-11-22T10:43:47.170Z,247.50
2018-11-22T10:44:47.128Z,241.88
2018-11-22T10:45:47.096Z,264.38
2018-11-22T10:46:47.064Z,270.00
2018-11-22T10:47:47.029Z,270.00
2018-11-22T10:48:46.998Z,264.38
2018-11-22T10:49:51.358Z,298.13
2018-11-22T10:50:46.934Z,281.25
2018-11-22T10:51:46.905Z,315.00
2018-11-22T10:52:46.869Z,354.38
2018-11-22T10:53:46.836Z,315.00
2018-11-22T10:54:46.824Z,309.38
2018-11-22T10:55:46.770Z,281.25
2018-11-22T10:56:46.742Z,264.38
2018-11-22T10:57:46.710Z,241.88
2018-11-22T10:58:46.675Z,253.13
2018-11-22T10:59:46.641Z,258.75
2018-11-22T11:00:46.612Z,258.75
2018-11-22T11:01:46.576Z,264.38
2018-11-22T11:02:46.548Z,241.88
2018-11-22T11:03:46.514Z,236.25
2018-11-22T11:04:46.478Z,236.25
2018-11-22T11:05:46.451Z,236.25
2018-11-22T11:06:46.422Z,230.63
2018-11-22T11:07:46.426Z,225.00
2018-11-22T11:08:46.349Z,208.13
2018-11-22T11:09:46.324Z,202.50
2018-11-22T11:10:46.286Z,202.50
2018-11-22T11:11:46.253Z,196.88
2018-11-22T11:12:46.220Z,185.63
2018-11-22T11:13:46.199Z,196.88
2018-11-22T11:14:46.155Z,196.88
2018-11-22T11:15:46.128Z,191.25
2018-11-22T11:16:46.091Z,191.25
2018-11-22T11:17:46.060Z,191.25
2018-11-22T11:18:46.035Z,213.75
2018-11-22T11:19:45.992Z,219.38
2018-11-22T11:20:45.961Z,230.63
2018-11-22T11:21:45.941Z,196.88
2018-11-22T11:22:45.911Z,196.88
2018-11-22T11:23:45.862Z,202.50
2018-11-22T11:24:45.860Z,208.13
2018-11-22T11:25:45.800Z,191.25
2018-11-22T11:26:45.765Z,174.38
2018-11-22T11:27:45.732Z,180.00
2018-11-22T11:28:45.729Z,196.88
2018-11-22T11:29:45.668Z,174.38
2018-11-22T11:30:45.639Z,168.75
2018-11-22T11:31:45.613Z,168.75
2018-11-22T11:32:45.571Z,168.75
2018-11-22T11:33:45.540Z,185.63
2018-11-22T11:34:45.509Z,185.63
2018-11-22T11:35:45.474Z,174.38
2018-11-22T11:36:45.440Z,174.38
2018-11-22T11:37:45.407Z,174.38
2018-11-22T11:38:45.375Z,191.25
2018-11-22T11:39:45.341Z,191.25
2018-11-22T11:40:45.309Z,191.25
2018-11-22T11:41:45.276Z,180.00
2018-11-22T11:42:45.244Z,180.00
2018-11-22T11:43:45.213Z,180.00
2018-11-22T11:44:45.178Z,196.88
2018-11-22T11:45:45.161Z,213.75
2018-11-22T11:46:45.113Z,219.38
2018-11-22T11:47:45.080Z,213.75
2018-11-22T11:48:45.048Z,247.50
2018-11-22T11:49:45.015Z,270.00
2018-11-22T11:50:44.983Z,303.75
2018-11-22T11:51:44.949Z,354.38
2018-11-22T11:52:44.917Z,382.50
2018-11-22T11:53:44.885Z,393.75
2018-11-22T11:54:44.852Z,399.38
2018-11-22T11:55:44.819Z,365.63
2018-11-22T11:56:44.788Z,309.38
2018-11-22T11:57:44.757Z,292.50
2018-11-22T11:58:44.722Z,292.50
2018-11-22T11:59:44.689Z,292.50
2018-11-22T12:00:44.658Z,292.50
2018-11-22T12:01:44.627Z,275.63
2018-11-22T12:02:44.593Z,281.25
2018-11-22T12:03:44.570Z,270.00
2018-11-22T12:04:44.530Z,270.00
2018-11-22T12:05:44.500Z,270.00
2018-11-22T12:06:44.468Z,292.50
2018-11-22T12:07:44.436Z,270.00
2018-11-22T12:08:44.398Z,264.38
2018-11-22T12:09:44.366Z,230.63
2018-11-22T12:10:44.336Z,230.63
2018-11-22T12:11:44.315Z,241.88
2018-11-22T12:12:44.277Z,236.25
2018-11-22T12:13:44.236Z,241.88
2018-11-22T12:14:44.203Z,253.13
2018-11-22T12:15:44.177Z,236.25
2018-11-22T12:16:44.139Z,219.38
2018-11-22T12:17:44.107Z,213.75
2018-11-22T12:18:44.074Z,202.50
2018-11-22T12:19:44.042Z,219.38
2018-11-22T12:20:44.011Z,236.25
2018-11-22T12:21:43.988Z,236.25
2018-11-22T12:22:43.945Z,247.50
2018-11-22T12:23:43.912Z,264.38
2018-11-22T12:24:43.879Z,264.38
2018-11-22T12:25:43.847Z,247.50
2018-11-22T12:26:43.815Z,281.25
2018-11-22T12:27:43.781Z,298.13
2018-11-22T12:28:43.749Z,315.00
2018-11-22T12:29:43.717Z,292.50
2018-11-22T12:30:43.687Z,292.50
2018-11-22T12:31:43.665Z,298.13
2018-11-22T12:32:43.625Z,315.00
2018-11-22T12:33:43.588Z,343.13
2018-11-22T12:34:43.560Z,337.50
2018-11-22T12:35:43.529Z,320.63
2018-11-22T12:36:43.490Z,309.38
2018-11-22T12:37:43.510Z,258.75
2018-11-22T12:38:43.472Z,247.50
2018-11-22T12:39:43.395Z,241.88
2018-11-22T12:40:43.361Z,225.00
2018-11-22T12:41:43.341Z,208.13
2018-11-22T12:42:43.303Z,213.75
2018-11-22T12:43:43.262Z,213.75
2018-11-22T12:44:43.233Z,208.13
2018-11-22T12:45:43.208Z,208.13
2018-11-22T12:46:43.170Z,225.00
2018-11-22T12:47:43.133Z,264.38
2018-11-22T12:48:43.103Z,286.88
2018-11-22T12:49:43.069Z,326.25
2018-11-22T12:50:43.037Z,303.75
2018-11-22T12:51:43.009Z,241.88
2018-11-22T12:52:42.970Z,225.00
2018-11-22T12:53:42.941Z,208.13
2018-11-22T12:54:42.910Z,196.88
2018-11-22T12:55:42.874Z,180.00
2018-11-22T12:56:42.845Z,191.25
2018-11-22T12:57:42.815Z,196.88